Time;durP1;ratioP1;P1;durP2;ratioP2;P2;SDS_P1;SDS_P2;PMS_P1;PMS_P2;Temp;Humidity;BMP_temperature;BMP_pressure;BME280_temperature;BME280_humidity;BME280_pressure;Samples;Min_cycle;Max_cycle;Signal;HPM_P1;HPM_P2
2024/03/04 00:00:13;;;;;;;11.80;7.20;;;10.30;99.90;;;;;;4969040;28;20217;-72
2024/03/04 00:02:41;;;;;;;10.83;6.90;;;10.20;99.90;;;;;;4983968;28;20230;-70
2024/03/04 00:05:08;;;;;;;8.43;6.17;;;10.20;99.90;;;;;;4970648;28;20462;-73
2024/03/04 00:07:33;;;;;;;15.83;6.80;;;10.20;99.90;;;;;;4960854;28;20223;-71
2024/03/04 00:09:59;;;;;;;9.20;6.77;;;10.20;99.90;;;;;;4966475;28;20994;-71
2024/03/04 00:12:25;;;;;;;9.40;6.00;;;10.20;99.90;;;;;;4967961;28;20336;-73
2024/03/04 00:14:51;;;;;;;8.10;6.43;;;10.20;99.90;;;;;;4965665;28;20222;-72
2024/03/04 00:17:17;;;;;;;10.83;6.60;;;10.20;99.90;;;;;;4966458;28;20222;-72
2024/03/04 00:19:42;;;;;;;12.03;7.27;;;10.10;99.90;;;;;;4971404;28;20508;-72
2024/03/04 00:22:09;;;;;;;8.50;6.20;;;10.10;99.90;;;;;;4951454;28;20215;-71
2024/03/04 00:24:34;;;;;;;11.43;6.83;;;10.10;99.90;;;;;;4969337;28;20268;-73
2024/03/04 00:27:00;;;;;;;12.07;7.40;;;10.10;99.90;;;;;;4955227;28;20446;-72
2024/03/04 00:29:29;;;;;;;11.67;7.07;;;10.10;99.90;;;;;;4969141;28;20222;-72
2024/03/04 00:31:54;;;;;;;10.30;7.20;;;10.20;99.90;;;;;;4967667;28;20219;-73
2024/03/04 00:34:20;;;;;;;11.80;7.80;;;10.20;99.90;;;;;;4965498;28;21006;-72
2024/03/04 00:36:46;;;;;;;12.10;7.90;;;10.20;99.90;;;;;;4965160;28;20333;-72
2024/03/04 00:39:12;;;;;;;11.07;7.10;;;10.10;99.90;;;;;;4966558;28;20238;-73
2024/03/04 00:41:38;;;;;;;13.73;9.77;;;10.20;99.90;;;;;;4969375;28;20644;-72
2024/03/04 00:44:04;;;;;;;17.63;10.50;;;10.10;99.90;;;;;;4969982;28;20469;-72
2024/03/04 00:46:30;;;;;;;16.70;9.80;;;10.00;99.90;;;;;;4951485;28;20224;-72
2024/03/04 00:48:56;;;;;;;19.80;12.03;;;10.00;99.90;;;;;;4951380;28;20454;-71
2024/03/04 00:51:21;;;;;;;18.93;10.80;;;10.00;99.90;;;;;;4966589;28;20472;-71
2024/03/04 00:53:47;;;;;;;19.30;11.33;;;10.00;99.90;;;;;;4965553;28;20225;-72
2024/03/04 00:56:17;;;;;;;20.77;11.10;;;10.10;99.90;;;;;;4965008;28;20223;-71
2024/03/04 00:58:43;;;;;;;24.07;12.33;;;10.00;99.90;;;;;;4965739;28;20231;-72
2024/03/04 01:01:09;;;;;;;21.03;11.90;;;10.00;99.90;;;;;;4965209;28;20508;-73
2024/03/04 01:03:35;;;;;;;19.77;11.93;;;10.10;99.90;;;;;;4963918;28;20470;-71
2024/03/04 01:06:01;;;;;;;24.90;14.80;;;10.00;99.90;;;;;;4966848;28;20231;-73
2024/03/04 01:08:28;;;;;;;20.40;12.33;;;10.10;99.90;;;;;;4980367;28;20465;-73
2024/03/04 01:10:54;;;;;;;30.90;14.20;;;10.10;99.90;;;;;;4966519;28;20238;-72
2024/03/04 01:13:20;;;;;;;22.27;13.57;;;10.00;99.90;;;;;;4948154;28;20477;-73
2024/03/04 01:15:47;;;;;;;22.63;14.30;;;10.00;99.90;;;;;;4963324;28;20442;-72
2024/03/04 01:18:14;;;;;;;24.73;14.20;;;10.10;99.90;;;;;;4968072;28;20516;-73
2024/03/04 01:20:40;;;;;;;21.10;13.30;;;10.10;99.90;;;;;;4967182;28;20516;-73
2024/03/04 01:23:08;;;;;;;25.83;14.20;;;10.00;99.90;;;;;;4967455;28;20565;-72
2024/03/04 01:25:34;;;;;;;24.27;14.13;;;10.00;99.90;;;;;;4970474;28;20446;-73
2024/03/04 01:28:00;;;;;;;24.50;14.00;;;10.10;99.90;;;;;;4957494;28;20458;-73
2024/03/04 01:30:26;;;;;;;28.80;14.67;;;10.10;99.90;;;;;;4957738;28;20481;-73
2024/03/04 01:32:53;;;;;;;25.77;14.57;;;10.10;99.90;;;;;;4970650;28;20235;-73
2024/03/04 01:35:18;;;;;;;29.03;14.80;;;10.00;99.90;;;;;;4953958;28;20469;-73
2024/03/04 01:37:46;;;;;;;35.90;16.87;;;10.10;99.90;;;;;;4960559;28;20478;-74
2024/03/04 01:40:13;;;;;;;30.40;17.00;;;10.00;99.90;;;;;;4945009;28;20232;-73
2024/03/04 01:42:42;;;;;;;31.60;18.07;;;9.90;99.90;;;;;;4959928;28;20477;-73
2024/03/04 01:45:26;;;;;;;32.63;15.90;;;9.80;99.90;;;;;;4962435;28;20481;-72
2024/03/04 01:48:02;;;;;;;33.93;17.63;;;9.80;99.90;;;;;;4964082;28;20504;-73
2024/03/04 01:50:31;;;;;;;32.87;16.40;;;9.80;99.90;;;;;;4960352;28;20897;-73
2024/03/04 01:52:58;;;;;;;33.70;17.60;;;9.80;99.90;;;;;;4964265;28;20500;-71
2024/03/04 01:55:28;;;;;;;29.97;17.20;;;9.80;99.90;;;;;;4958697;28;20558;-72
2024/03/04 01:57:56;;;;;;;37.87;19.00;;;9.80;99.90;;;;;;4962836;28;20520;-73
2024/03/04 02:00:24;;;;;;;43.93;19.90;;;9.80;99.90;;;;;;4957769;28;20462;-73
2024/03/04 02:02:53;;;;;;;29.83;17.60;;;9.80;99.90;;;;;;4968237;28;20567;-73
2024/03/04 02:05:19;;;;;;;34.83;18.37;;;9.80;99.90;;;;;;4960335;28;20535;-72
2024/03/04 02:07:46;;;;;;;33.17;18.43;;;9.80;99.90;;;;;;4961595;28;20557;-73
2024/03/04 02:10:15;;;;;;;33.17;18.77;;;9.80;99.90;;;;;;4977384;28;20269;-72
2024/03/04 02:12:41;;;;;;;39.10;19.30;;;9.80;99.90;;;;;;4965575;28;20493;-72
2024/03/04 02:15:08;;;;;;;40.30;20.10;;;9.70;99.90;;;;;;4975684;28;21019;-72
2024/03/04 02:17:34;;;;;;;43.87;20.47;;;9.70;99.90;;;;;;4963147;28;20473;-74
2024/03/04 02:20:09;;;;;;;38.30;20.80;;;9.60;99.90;;;;;;4948893;28;20462;-72
2024/03/04 02:22:35;;;;;;;39.87;21.00;;;9.60;99.90;;;;;;4960724;28;20480;-74
2024/03/04 02:25:03;;;;;;;41.07;18.83;;;9.70;99.90;;;;;;4977999;28;20474;-72
2024/03/04 02:27:29;;;;;;;48.47;21.50;;;9.70;99.90;;;;;;4941875;28;20501;-73
2024/03/04 02:29:54;;;;;;;37.33;19.57;;;9.60;99.90;;;;;;4978508;28;20462;-73
2024/03/04 02:32:21;;;;;;;43.70;21.30;;;9.60;99.90;;;;;;4958696;28;20465;-71
2024/03/04 02:34:49;;;;;;;38.93;19.43;;;9.60;99.90;;;;;;4967479;28;20264;-70
2024/03/04 02:37:15;;;;;;;46.13;21.33;;;9.60;99.90;;;;;;4959804;28;20461;-72
2024/03/04 02:39:42;;;;;;;41.93;19.93;;;9.70;99.90;;;;;;4961816;28;20442;-72
2024/03/04 02:42:08;;;;;;;43.50;20.40;;;9.70;99.90;;;;;;4964671;28;20462;-73
2024/03/04 02:44:34;;;;;;;42.20;18.87;;;9.60;99.90;;;;;;4962092;28;20462;-72
2024/03/04 02:47:00;;;;;;;40.03;20.57;;;9.60;99.90;;;;;;4979773;28;20238;-72
2024/03/04 02:49:28;;;;;;;42.10;19.80;;;9.60;99.90;;;;;;4955701;28;20493;-71
2024/03/04 02:51:56;;;;;;;40.37;18.97;;;9.60;99.90;;;;;;4961336;28;20509;-71
2024/03/04 02:54:23;;;;;;;40.03;20.30;;;9.50;99.90;;;;;;4942370;28;20450;-73
2024/03/04 02:56:50;;;;;;;44.20;20.40;;;9.50;99.90;;;;;;4962947;28;20553;-70
2024/03/04 02:59:16;;;;;;;47.90;20.53;;;9.50;99.90;;;;;;4957070;28;20473;-73
2024/03/04 03:01:47;;;;;;;41.07;19.80;;;9.50;99.90;;;;;;4962147;28;20543;-70
2024/03/04 03:04:14;;;;;;;51.13;22.77;;;9.50;99.90;;;;;;4977896;28;20317;-74
2024/03/04 03:06:42;;;;;;;43.20;21.00;;;9.40;99.90;;;;;;4976895;28;20529;-72
2024/03/04 03:09:14;;;;;;;45.00;20.13;;;9.40;99.90;;;;;;4960404;28;20454;-73
2024/03/04 03:11:40;;;;;;;51.10;20.83;;;9.50;99.90;;;;;;4960914;28;20462;-73
2024/03/04 03:14:05;;;;;;;44.13;20.87;;;9.40;99.90;;;;;;4963209;28;20496;-73
2024/03/04 03:16:31;;;;;;;45.60;20.90;;;9.40;99.90;;;;;;4952379;28;20462;-73
2024/03/04 03:18:57;;;;;;;50.40;21.10;;;9.40;99.90;;;;;;4947060;28;20225;-73
2024/03/04 03:21:23;;;;;;;41.83;20.63;;;9.40;99.90;;;;;;4960973;28;20546;-72
2024/03/04 03:23:52;;;;;;;42.70;19.83;;;9.30;99.90;;;;;;4965747;28;20226;-73
2024/03/04 03:26:18;;;;;;;43.13;20.90;;;9.30;99.90;;;;;;4955531;28;20462;-74
2024/03/04 03:28:44;;;;;;;38.53;18.67;;;9.40;99.90;;;;;;4960064;28;20891;-73
2024/03/04 03:31:10;;;;;;;44.93;20.00;;;9.30;99.90;;;;;;4962235;28;20497;-73
2024/03/04 03:33:37;;;;;;;42.07;19.93;;;9.30;99.90;;;;;;4954781;28;20230;-73
2024/03/04 03:36:04;;;;;;;44.20;18.47;;;9.30;99.90;;;;;;4960482;28;20466;-74
2024/03/04 03:38:32;;;;;;;43.90;18.93;;;9.40;99.90;;;;;;4957939;28;20512;-74
2024/03/04 03:40:59;;;;;;;44.80;19.00;;;9.30;99.90;;;;;;4960006;28;20566;-73
2024/03/04 03:43:25;;;;;;;38.07;18.87;;;9.30;99.90;;;;;;4955124;28;20561;-72
2024/03/04 03:45:51;;;;;;;38.13;18.03;;;9.30;99.90;;;;;;4961120;28;20562;-73
2024/03/04 03:48:19;;;;;;;35.53;18.00;;;9.30;99.90;;;;;;4956456;28;20242;-72
2024/03/04 03:50:47;;;;;;;39.77;19.47;;;9.30;99.90;;;;;;4956850;28;20214;-72
2024/03/04 03:53:13;;;;;;;42.97;19.53;;;9.30;99.90;;;;;;4974581;28;20454;-72
2024/03/04 03:55:40;;;;;;;43.10;19.73;;;9.40;99.90;;;;;;4961674;28;20454;-73
2024/03/04 03:58:06;;;;;;;46.27;20.30;;;9.40;99.90;;;;;;4945747;28;20800;-73
2024/03/04 04:00:32;;;;;;;40.53;17.30;;;9.40;99.90;;;;;;4953613;28;20469;-73
2024/03/04 04:02:59;;;;;;;41.37;17.10;;;9.30;99.90;;;;;;4961203;28;20854;-73
2024/03/04 04:05:24;;;;;;;40.90;16.70;;;9.40;99.90;;;;;;4954978;28;20557;-73
2024/03/04 04:07:50;;;;;;;46.00;19.20;;;9.30;99.90;;;;;;4963025;28;20549;-73
2024/03/04 04:10:16;;;;;;;39.97;17.17;;;9.30;99.90;;;;;;4956700;28;20222;-72
2024/03/04 04:12:41;;;;;;;35.60;16.70;;;9.30;99.90;;;;;;4958583;28;20606;-73
2024/03/04 04:15:08;;;;;;;40.87;16.77;;;9.30;99.90;;;;;;4957535;28;20226;-72
2024/03/04 04:17:33;;;;;;;35.37;16.90;;;9.30;99.90;;;;;;4957961;28;20226;-73
2024/03/04 04:19:59;;;;;;;34.30;16.07;;;9.30;99.90;;;;;;4959077;28;20564;-72
2024/03/04 04:22:26;;;;;;;39.80;17.50;;;9.30;99.90;;;;;;4958702;28;20740;-72
2024/03/04 04:24:53;;;;;;;31.77;15.10;;;9.30;99.90;;;;;;4961201;28;20888;-71
2024/03/04 04:27:18;;;;;;;33.43;16.00;;;9.30;99.90;;;;;;4958874;28;20922;-73
2024/03/04 04:29:44;;;;;;;33.50;16.00;;;9.30;99.90;;;;;;4966474;28;20484;-73
2024/03/04 04:32:13;;;;;;;41.17;17.33;;;9.20;99.90;;;;;;4967471;28;20719;-72
2024/03/04 04:34:41;;;;;;;34.83;16.13;;;9.30;99.90;;;;;;4958848;28;20238;-73
2024/03/04 04:37:07;;;;;;;36.60;17.50;;;9.20;99.90;;;;;;4965844;28;20463;-73
2024/03/04 04:39:32;;;;;;;35.40;14.70;;;9.30;99.90;;;;;;4955403;28;20556;-73
2024/03/04 04:41:58;;;;;;;36.67;16.80;;;9.20;99.90;;;;;;4959478;28;20482;-73
2024/03/04 04:44:24;;;;;;;43.00;17.93;;;9.20;99.90;;;;;;4945695;28;20272;-72
2024/03/04 04:46:49;;;;;;;36.40;16.90;;;9.20;99.90;;;;;;4963226;28;20303;-72
2024/03/04 04:49:16;;;;;;;36.00;15.93;;;9.20;99.90;;;;;;4953462;28;20226;-74
2024/03/04 04:51:41;;;;;;;33.97;16.53;;;9.20;99.90;;;;;;4943349;28;20222;-74
2024/03/04 04:54:07;;;;;;;34.63;15.80;;;9.20;99.90;;;;;;4970730;28;20468;-73
2024/03/04 04:56:33;;;;;;;36.23;16.87;;;9.20;99.90;;;;;;4957647;28;20272;-74
2024/03/04 04:58:58;;;;;;;38.33;16.63;;;9.20;99.90;;;;;;4959739;28;20218;-74
2024/03/04 05:01:28;;;;;;;32.60;15.60;;;9.20;99.90;;;;;;4956757;28;20223;-73
2024/03/04 05:03:53;;;;;;;33.77;15.40;;;9.20;99.90;;;;;;4962650;28;20246;-73
2024/03/04 05:06:20;;;;;;;35.77;16.30;;;9.10;99.90;;;;;;4958589;28;20593;-74
2024/03/04 05:08:47;;;;;;;38.73;15.50;;;9.10;99.90;;;;;;4956275;28;20461;-73
2024/03/04 05:11:13;;;;;;;28.40;13.97;;;9.10;99.90;;;;;;4958873;28;20501;-72
2024/03/04 05:13:39;;;;;;;29.97;13.47;;;9.10;99.90;;;;;;4958220;28;20552;-73
2024/03/04 05:16:06;;;;;;;36.60;13.73;;;9.10;99.90;;;;;;4948664;28;20222;-73
2024/03/04 05:18:32;;;;;;;30.07;13.20;;;9.10;99.90;;;;;;4943933;28;20211;-73
2024/03/04 05:20:57;;;;;;;28.10;14.03;;;9.20;99.90;;;;;;4959489;28;20468;-73
2024/03/04 05:23:23;;;;;;;26.27;13.30;;;9.20;99.90;;;;;;4955913;28;20241;-73
2024/03/04 05:25:49;;;;;;;27.73;13.90;;;9.20;99.90;;;;;;4945377;28;20340;-71
2024/03/04 05:28:15;;;;;;;23.40;13.30;;;9.20;99.90;;;;;;4959103;28;20465;-74
2024/03/04 05:30:41;;;;;;;22.23;11.93;;;9.30;99.90;;;;;;4963624;28;20465;-74
2024/03/04 05:33:08;;;;;;;25.33;13.10;;;9.30;99.90;;;;;;4965308;28;20214;-74
2024/03/04 05:35:34;;;;;;;24.50;12.33;;;9.20;99.90;;;;;;4961109;28;20538;-73
2024/03/04 05:37:59;;;;;;;23.83;11.67;;;9.20;99.90;;;;;;4947331;28;20469;-72
2024/03/04 05:40:26;;;;;;;21.43;11.00;;;9.10;99.90;;;;;;4959502;28;20480;-74
2024/03/04 05:42:52;;;;;;;23.47;11.00;;;9.10;99.90;;;;;;4966601;28;20229;-74
2024/03/04 05:45:18;;;;;;;23.90;10.83;;;9.10;99.90;;;;;;4959663;28;20470;-74
2024/03/04 05:47:44;;;;;;;23.50;9.97;;;9.20;99.90;;;;;;4960007;28;20469;-73
2024/03/04 05:50:14;;;;;;;20.90;11.23;;;9.20;99.90;;;;;;4961416;28;20214;-73
2024/03/04 05:52:45;;;;;;;23.57;10.10;;;9.30;99.90;;;;;;4951849;28;20241;-74
2024/03/04 05:55:14;;;;;;;20.30;9.70;;;9.30;99.90;;;;;;4968932;28;20490;-74
2024/03/04 05:57:42;;;;;;;22.20;11.53;;;9.30;99.90;;;;;;4970561;28;20466;-73
2024/03/04 06:00:12;;;;;;;22.00;12.13;;;9.20;99.90;;;;;;4970815;28;20468;-74
2024/03/04 06:02:44;;;;;;;18.00;9.30;;;9.30;99.90;;;;;;4963298;28;20472;-74
2024/03/04 06:05:11;;;;;;;15.10;9.30;;;9.20;99.90;;;;;;4976627;28;20504;-73
2024/03/04 06:07:37;;;;;;;24.80;9.97;;;9.30;99.90;;;;;;4968982;28;20446;-73
2024/03/04 06:10:03;;;;;;;17.70;8.20;;;9.30;99.90;;;;;;4950553;28;20458;-72
2024/03/04 06:12:29;;;;;;;16.10;8.87;;;9.30;99.90;;;;;;4962098;28;20492;-73
2024/03/04 06:14:55;;;;;;;17.83;8.97;;;9.30;99.90;;;;;;4958101;28;21013;-73
2024/03/04 06:17:20;;;;;;;15.30;7.87;;;9.30;99.90;;;;;;4969025;28;20223;-74
2024/03/04 06:19:46;;;;;;;18.93;8.27;;;9.20;99.90;;;;;;4959410;28;20701;-74
2024/03/04 06:22:15;;;;;;;13.27;7.60;;;9.20;99.90;;;;;;4964046;28;20272;-73
2024/03/04 06:24:41;;;;;;;15.80;7.63;;;9.20;99.90;;;;;;4959962;28;20227;-74
2024/03/04 06:27:07;;;;;;;15.20;10.30;;;9.30;99.90;;;;;;4956692;28;20462;-74
2024/03/04 06:29:33;;;;;;;14.87;7.03;;;9.30;99.90;;;;;;4973060;28;20513;-73
2024/03/04 06:32:00;;;;;;;13.33;7.53;;;9.20;99.90;;;;;;4946299;28;20618;-73
2024/03/04 06:34:26;;;;;;;15.33;7.67;;;9.30;99.90;;;;;;4940811;28;20549;-74
2024/03/04 06:36:52;;;;;;;14.30;8.10;;;9.20;99.90;;;;;;4959120;28;20569;-73
2024/03/04 06:39:20;;;;;;;20.90;9.43;;;9.30;99.90;;;;;;4960416;28;20458;-73
2024/03/04 06:41:48;;;;;;;15.67;8.80;;;9.20;99.90;;;;;;4961412;28;20478;-74
2024/03/04 06:44:14;;;;;;;18.40;8.47;;;9.10;99.90;;;;;;4961185;28;20480;-74
2024/03/04 06:46:40;;;;;;;15.90;9.87;;;9.20;99.90;;;;;;4959056;28;20525;-73
2024/03/04 06:49:06;;;;;;;17.80;8.67;;;9.20;99.90;;;;;;4961691;28;20474;-74
2024/03/04 06:51:35;;;;;;;14.27;8.10;;;9.20;99.90;;;;;;4959021;28;20227;-72
2024/03/04 06:54:05;;;;;;;19.07;9.20;;;9.10;99.90;;;;;;4959106;28;20719;-73
2024/03/04 06:56:31;;;;;;;14.90;8.70;;;9.10;99.90;;;;;;4955672;28;20462;-74
2024/03/04 06:59:00;;;;;;;15.63;8.40;;;9.10;99.90;;;;;;4961588;28;20994;-73
2024/03/04 07:01:27;;;;;;;15.37;8.23;;;9.20;99.90;;;;;;4953065;28;20253;-74
2024/03/04 07:03:53;;;;;;;17.63;8.50;;;9.20;99.90;;;;;;4944444;28;20487;-74
2024/03/04 07:06:19;;;;;;;21.83;9.03;;;9.30;99.90;;;;;;4958051;28;20469;-74
2024/03/04 07:08:45;;;;;;;15.70;8.50;;;9.20;99.90;;;;;;4956394;28;20501;-73
2024/03/04 07:11:13;;;;;;;17.73;8.30;;;9.20;99.90;;;;;;4963343;28;20502;-74
2024/03/04 07:13:40;;;;;;;19.20;8.70;;;9.20;99.90;;;;;;4956415;28;20257;-73
2024/03/04 07:16:07;;;;;;;14.00;7.47;;;9.20;99.90;;;;;;4959735;28;20478;-74
2024/03/04 07:18:35;;;;;;;16.00;8.70;;;9.10;99.90;;;;;;4956671;28;20532;-73
2024/03/04 07:21:01;;;;;;;15.93;8.37;;;9.10;99.90;;;;;;4963705;28;20466;-74
2024/03/04 07:23:27;;;;;;;14.60;8.20;;;9.10;99.90;;;;;;4957582;28;20528;-73
2024/03/04 07:25:53;;;;;;;17.73;8.87;;;9.10;99.90;;;;;;4958636;28;20214;-74
2024/03/04 07:28:19;;;;;;;17.77;9.30;;;9.10;99.90;;;;;;4958705;28;20500;-72
2024/03/04 07:30:46;;;;;;;17.20;10.40;;;9.00;99.90;;;;;;4961922;28;20486;-73
2024/03/04 07:33:12;;;;;;;15.80;9.20;;;9.00;99.90;;;;;;4960269;28;20301;-73
2024/03/04 07:35:41;;;;;;;18.87;8.40;;;9.00;99.90;;;;;;4961265;28;20462;-74
2024/03/04 07:38:07;;;;;;;19.60;9.60;;;9.00;99.90;;;;;;4964058;28;20466;-74
2024/03/04 07:40:33;;;;;;;16.27;9.10;;;9.10;99.90;;;;;;4955983;28;20561;-74
2024/03/04 07:43:00;;;;;;;16.67;8.90;;;9.10;99.90;;;;;;4961581;28;20569;-74
2024/03/04 07:45:26;;;;;;;16.20;8.80;;;9.10;99.90;;;;;;4959635;28;20230;-72
2024/03/04 07:47:52;;;;;;;19.33;7.70;;;9.10;99.90;;;;;;4953674;28;20468;-71
2024/03/04 07:50:17;;;;;;;17.87;9.30;;;9.10;99.90;;;;;;4951284;28;20310;-73
2024/03/04 07:52:43;;;;;;;15.63;9.07;;;9.10;99.90;;;;;;4959152;28;20369;-74
2024/03/04 07:55:11;;;;;;;17.70;8.33;;;9.10;99.90;;;;;;4957767;28;20218;-73
2024/03/04 07:57:39;;;;;;;15.23;8.70;;;9.10;99.90;;;;;;4955536;28;20281;-74
2024/03/04 08:00:06;;;;;;;19.77;9.33;;;9.10;99.90;;;;;;4953788;28;20532;-73
2024/03/04 08:02:35;;;;;;;19.83;9.47;;;9.10;99.90;;;;;;4951992;28;20523;-73
2024/03/04 08:05:01;;;;;;;16.07;7.70;;;9.10;99.90;;;;;;4959632;28;20472;-74
2024/03/04 08:07:27;;;;;;;16.83;8.87;;;9.10;99.90;;;;;;4954709;28;20470;-73
2024/03/04 08:09:52;;;;;;;21.07;10.33;;;9.10;99.90;;;;;;4960658;28;20675;-74
2024/03/04 08:12:18;;;;;;;18.23;9.83;;;9.10;99.90;;;;;;4954883;28;20317;-74
2024/03/04 08:14:43;;;;;;;16.53;8.13;;;9.20;99.90;;;;;;4958913;28;20250;-72
2024/03/04 08:17:10;;;;;;;20.00;10.07;;;9.20;99.90;;;;;;4958572;28;20210;-73
2024/03/04 08:19:36;;;;;;;18.60;9.87;;;9.20;99.90;;;;;;4953091;28;20214;-74
2024/03/04 08:22:03;;;;;;;17.70;8.50;;;9.20;99.90;;;;;;4960314;28;21031;-74
2024/03/04 08:24:28;;;;;;;18.73;8.17;;;9.20;99.90;;;;;;4952898;28;20413;-73
2024/03/04 08:26:54;;;;;;;17.73;8.70;;;9.20;99.90;;;;;;4958929;28;20486;-74
2024/03/04 08:29:20;;;;;;;19.27;8.77;;;9.20;99.90;;;;;;4954817;28;20245;-75
2024/03/04 08:31:47;;;;;;;17.60;9.50;;;9.20;99.90;;;;;;4957047;28;20646;-74
2024/03/04 08:34:13;;;;;;;20.50;8.67;;;9.30;99.90;;;;;;4971032;28;20269;-74
2024/03/04 08:36:39;;;;;;;16.97;8.90;;;9.30;99.90;;;;;;4956050;28;20569;-74
2024/03/04 08:39:04;;;;;;;19.30;9.00;;;9.30;99.90;;;;;;4960820;28;21043;-73
2024/03/04 08:41:30;;;;;;;14.30;8.23;;;9.30;99.90;;;;;;4955175;28;20722;-73
2024/03/04 08:43:56;;;;;;;20.70;9.67;;;9.40;99.90;;;;;;4959312;28;20325;-73
2024/03/04 08:46:21;;;;;;;15.97;8.17;;;9.40;99.90;;;;;;4954658;28;20229;-73
2024/03/04 08:48:47;;;;;;;18.13;8.20;;;9.40;99.90;;;;;;4957532;28;20287;-73
2024/03/04 08:51:13;;;;;;;16.20;8.60;;;9.40;99.90;;;;;;4958644;28;20230;-73
2024/03/04 08:53:38;;;;;;;20.33;9.50;;;9.40;99.90;;;;;;4956762;28;20222;-74
2024/03/04 08:56:04;;;;;;;15.80;8.73;;;9.40;99.90;;;;;;4958959;28;20222;-74
2024/03/04 08:58:32;;;;;;;23.40;9.40;;;9.40;99.90;;;;;;4939026;28;20281;-73
2024/03/04 09:00:57;;;;;;;21.13;9.77;;;9.40;99.90;;;;;;4961545;28;20602;-74
2024/03/04 09:03:23;;;;;;;17.83;9.07;;;9.40;99.90;;;;;;4969842;28;20474;-74
2024/03/04 09:05:49;;;;;;;19.37;9.13;;;9.40;99.90;;;;;;4955746;28;20223;-74
2024/03/04 09:08:15;;;;;;;18.07;9.37;;;9.50;99.90;;;;;;4958891;28;20690;-74
2024/03/04 09:10:41;;;;;;;17.83;9.73;;;9.50;99.90;;;;;;4953370;28;20214;-74
2024/03/04 09:13:07;;;;;;;17.97;10.53;;;9.50;99.90;;;;;;4957312;28;20845;-73
2024/03/04 09:15:33;;;;;;;20.07;10.70;;;9.60;99.90;;;;;;4951740;28;20747;-74
2024/03/04 09:17:59;;;;;;;27.23;13.27;;;9.60;99.90;;;;;;4955435;28;20457;-75
2024/03/04 09:20:25;;;;;;;23.70;11.50;;;9.50;99.90;;;;;;4970482;28;20218;-73
2024/03/04 09:22:50;;;;;;;17.87;10.70;;;9.60;99.90;;;;;;4958437;28;20759;-73
2024/03/04 09:25:16;;;;;;;21.80;11.60;;;9.60;99.90;;;;;;4952687;28;20238;-74
2024/03/04 09:27:43;;;;;;;18.53;9.33;;;9.60;99.90;;;;;;4945344;28;20728;-73
2024/03/04 09:30:09;;;;;;;23.10;10.40;;;9.60;99.90;;;;;;4956983;28;20688;-74
2024/03/04 09:32:35;;;;;;;18.80;9.47;;;9.60;99.90;;;;;;4952857;28;20488;-74
2024/03/04 09:35:01;;;;;;;20.80;9.60;;;9.60;99.90;;;;;;4957523;28;20449;-73
2024/03/04 09:37:26;;;;;;;24.07;11.00;;;9.70;99.90;;;;;;4953229;28;20223;-74
2024/03/04 09:39:52;;;;;;;16.90;9.30;;;9.70;99.90;;;;;;4958692;28;20580;-74
2024/03/04 09:42:18;;;;;;;20.97;9.90;;;9.60;99.90;;;;;;4952615;28;20238;-74
2024/03/04 09:44:45;;;;;;;18.20;8.47;;;9.60;99.90;;;;;;4959977;28;20717;-73
2024/03/04 09:47:12;;;;;;;19.57;9.90;;;9.60;99.90;;;;;;4972960;28;20249;-74
2024/03/04 09:49:39;;;;;;;20.37;10.33;;;9.70;99.90;;;;;;4955355;28;20472;-74
2024/03/04 09:52:07;;;;;;;18.63;9.33;;;9.70;99.90;;;;;;4957666;28;20469;-74
2024/03/04 09:54:36;;;;;;;15.80;9.63;;;9.70;99.90;;;;;;4939113;28;20486;-73
2024/03/04 09:57:03;;;;;;;21.13;10.03;;;9.70;99.90;;;;;;4956912;28;20489;-75
2024/03/04 09:59:31;;;;;;;18.47;8.73;;;9.70;99.90;;;;;;4954209;28;20474;-74
2024/03/04 10:01:59;;;;;;;17.83;9.20;;;9.70;99.90;;;;;;4958508;28;20469;-73
2024/03/04 10:04:25;;;;;;;17.57;9.30;;;9.70;99.90;;;;;;4956284;28;20470;-74
2024/03/04 10:06:51;;;;;;;12.87;8.30;;;9.70;99.90;;;;;;4969399;28;20520;-71
2024/03/04 10:09:17;;;;;;;19.97;9.83;;;9.70;99.90;;;;;;4955830;28;20233;-72
2024/03/04 10:11:43;;;;;;;19.53;9.43;;;9.70;99.90;;;;;;4942437;28;20783;-72
2024/03/04 10:14:09;;;;;;;15.27;8.13;;;9.70;99.90;;;;;;4955227;28;20215;-74
2024/03/04 10:16:36;;;;;;;22.13;10.53;;;9.70;99.90;;;;;;4938265;28;20469;-72
2024/03/04 10:19:04;;;;;;;23.83;11.70;;;9.80;99.90;;;;;;4956353;28;20759;-75
2024/03/04 10:21:31;;;;;;;22.60;11.10;;;9.80;99.90;;;;;;4954827;28;20478;-74
2024/03/04 10:23:59;;;;;;;16.00;8.93;;;9.70;99.90;;;;;;4956856;28;20485;-73
2024/03/04 10:26:24;;;;;;;16.83;9.33;;;9.80;99.90;;;;;;4953901;28;20834;-74
2024/03/04 10:28:51;;;;;;;22.20;10.40;;;9.80;99.90;;;;;;4956986;28;20562;-74
2024/03/04 10:31:18;;;;;;;16.90;9.70;;;9.80;99.90;;;;;;4953762;28;20235;-74
2024/03/04 10:33:44;;;;;;;19.00;9.40;;;9.80;99.90;;;;;;4941074;28;20470;-75
2024/03/04 10:36:14;;;;;;;22.90;10.00;;;9.90;99.90;;;;;;4959769;28;20469;-72
2024/03/04 10:38:41;;;;;;;25.70;9.83;;;9.80;99.90;;;;;;4953535;28;20470;-74
2024/03/04 10:41:14;;;;;;;20.20;10.00;;;9.80;99.90;;;;;;4959149;28;20477;-74
2024/03/04 10:43:41;;;;;;;19.60;10.40;;;9.80;99.90;;;;;;4968473;28;20852;-74
2024/03/04 10:46:08;;;;;;;17.27;9.60;;;9.90;99.90;;;;;;4956237;28;20511;-73
2024/03/04 10:48:34;;;;;;;15.30;9.67;;;9.90;99.90;;;;;;4950649;28;20489;-73
2024/03/04 10:51:00;;;;;;;18.50;10.20;;;10.00;99.90;;;;;;4958941;28;20477;-73
2024/03/04 10:53:26;;;;;;;19.17;9.67;;;10.00;99.90;;;;;;4954112;28;20520;-72
2024/03/04 10:55:58;;;;;;;14.80;10.10;;;9.90;99.90;;;;;;4966439;28;20231;-72
2024/03/04 10:58:27;;;;;;;16.17;8.90;;;10.00;99.90;;;;;;4941459;28;20241;-72
2024/03/04 11:00:53;;;;;;;24.80;12.03;;;10.00;99.90;;;;;;4942006;28;20454;-72
2024/03/04 11:03:23;;;;;;;20.10;9.50;;;10.00;99.90;;;;;;4954670;28;20482;-73
2024/03/04 11:05:52;;;;;;;22.33;9.73;;;10.00;99.90;;;;;;4955677;28;20349;-73
2024/03/04 11:08:38;;;;;;;17.33;8.70;;;10.00;99.90;;;;;;4972839;28;20454;-74
2024/03/04 11:11:16;;;;;;;21.40;9.70;;;10.00;99.90;;;;;;4975524;28;20454;-72
2024/03/04 11:14:18;;;;;;;15.10;8.77;;;10.00;99.90;;;;;;4956031;28;20895;-74
2024/03/04 11:16:48;;;;;;;15.40;8.90;;;10.10;99.90;;;;;;4957229;28;20494;-73
2024/03/04 11:19:14;;;;;;;14.73;8.90;;;10.10;99.90;;;;;;4963745;28;20484;-73
2024/03/04 11:21:42;;;;;;;23.73;9.70;;;10.10;99.90;;;;;;4957021;28;20872;-73
2024/03/04 11:24:09;;;;;;;15.23;8.87;;;10.20;99.90;;;;;;4961423;28;20261;-74
2024/03/04 11:26:38;;;;;;;18.93;10.20;;;10.10;99.90;;;;;;4960545;28;20481;-74
2024/03/04 11:29:06;;;;;;;15.17;8.60;;;10.10;99.90;;;;;;4971060;28;20458;-74
2024/03/04 11:31:32;;;;;;;15.80;8.70;;;10.10;99.90;;;;;;4956996;28;20484;-74
2024/03/04 11:33:59;;;;;;;18.40;8.80;;;10.10;99.90;;;;;;4969843;28;20557;-74
2024/03/04 11:36:25;;;;;;;19.60;8.73;;;10.20;99.90;;;;;;4970867;28;20697;-74
2024/03/04 11:38:51;;;;;;;17.67;8.77;;;10.30;99.90;;;;;;4960852;28;20528;-73
2024/03/04 11:41:39;;;;;;;17.30;8.87;;;10.30;99.90;;;;;;4957971;28;20292;-74
2024/03/04 11:44:05;;;;;;;21.43;8.57;;;10.30;99.90;;;;;;4957262;28;20963;-73
2024/03/04 11:46:36;;;;;;;15.17;9.07;;;10.30;99.90;;;;;;4941230;28;20480;-74
2024/03/04 11:49:26;;;;;;;16.90;10.17;;;10.30;99.90;;;;;;4954017;28;20719;-73
2024/03/04 11:52:14;;;;;;;18.50;9.30;;;10.30;99.90;;;;;;4956166;28;20466;-74
2024/03/04 11:54:42;;;;;;;21.03;10.63;;;10.40;99.90;;;;;;4952991;28;20472;-72
2024/03/04 11:57:08;;;;;;;15.13;8.30;;;10.30;99.90;;;;;;4956927;28;20462;-73
2024/03/04 11:59:36;;;;;;;21.97;10.20;;;10.30;99.90;;;;;;4954836;28;20474;-73
2024/03/04 12:02:09;;;;;;;18.03;9.70;;;10.30;99.90;;;;;;4978059;28;20550;-73
2024/03/04 12:04:36;;;;;;;17.67;10.37;;;10.30;99.90;;;;;;4964846;28;20474;-73
2024/03/04 12:07:05;;;;;;;14.90;8.80;;;10.30;99.90;;;;;;4966948;28;20509;-74
2024/03/04 12:09:33;;;;;;;17.30;9.33;;;10.40;99.90;;;;;;4960629;28;20549;-75
2024/03/04 12:11:59;;;;;;;17.33;9.80;;;10.40;99.90;;;;;;4962492;28;20489;-74
2024/03/04 12:14:25;;;;;;;16.33;9.70;;;10.50;99.90;;;;;;4947061;28;20521;-74
2024/03/04 12:16:51;;;;;;;14.67;7.90;;;10.50;99.90;;;;;;4961515;28;20241;-74
2024/03/04 12:19:16;;;;;;;17.43;9.67;;;10.50;99.90;;;;;;4962254;28;20233;-74
2024/03/04 12:21:43;;;;;;;16.60;10.40;;;10.50;99.90;;;;;;4950950;28;20462;-73
2024/03/04 12:24:09;;;;;;;18.90;9.40;;;10.50;99.90;;;;;;4963502;28;20238;-74
2024/03/04 12:26:35;;;;;;;20.00;10.67;;;10.60;99.90;;;;;;4964480;28;20458;-74
2024/03/04 12:29:03;;;;;;;19.83;9.83;;;10.60;99.90;;;;;;4965424;28;20218;-73
2024/03/04 12:31:29;;;;;;;18.60;10.07;;;10.60;99.90;;;;;;4965587;28;20480;-74
2024/03/04 12:33:56;;;;;;;19.60;10.23;;;10.60;99.90;;;;;;4964081;28;21111;-74
2024/03/04 12:36:25;;;;;;;24.07;11.77;;;10.60;99.90;;;;;;4952596;28;20473;-74